Time;durP1;ratioP1;P1;durP2;ratioP2;P2;SDS_P1;SDS_P2;PMS_P1;PMS_P2;Temp;Humidity;BMP_temperature;BMP_pressure;BME280_temperature;BME280_humidity;BME280_pressure;Samples;Min_cycle;Max_cycle;Signal;HPM_P1;HPM_P2
2021/05/23 00:00:27;;;;;;;8.07;2.80;;;21.50;41.70;;;;;;5073111;28;20025;-79
2021/05/23 00:02:56;;;;;;;7.28;2.25;;;21.60;40.90;;;;;;5069678;28;20029;-79
2021/05/23 00:05:27;;;;;;;12.52;3.20;;;21.60;40.80;;;;;;5070838;28;20028;-78
2021/05/23 00:08:07;;;;;;;19.27;3.47;;;21.40;41.00;;;;;;5054030;28;20483;-80
2021/05/23 00:10:37;;;;;;;6.28;1.73;;;21.40;41.30;;;;;;5074967;28;20035;-77
2021/05/23 00:13:06;;;;;;;9.75;3.20;;;21.30;41.80;;;;;;5065178;28;20024;-78
2021/05/23 00:15:45;;;;;;;10.18;3.97;;;21.30;41.70;;;;;;5071674;28;20035;-79
2021/05/23 00:18:12;;;;;;;11.68;2.63;;;21.30;41.60;;;;;;5053142;28;20056;-78
2021/05/23 00:20:40;;;;;;;11.35;2.33;;;21.20;42.00;;;;;;5081119;28;20035;-78
2021/05/23 00:23:09;;;;;;;6.15;2.95;;;21.10;42.10;;;;;;5074496;28;20099;-80
2021/05/23 00:25:37;;;;;;;9.65;4.50;;;20.90;42.50;;;;;;5056875;28;20032;-79
2021/05/23 00:28:04;;;;;;;12.63;2.45;;;20.90;42.70;;;;;;5079247;28;20020;-79
2021/05/23 00:30:30;;;;;;;9.32;3.20;;;20.90;43.20;;;;;;5066091;28;20025;-78
2021/05/23 00:32:57;;;;;;;11.82;3.42;;;20.80;42.80;;;;;;5055848;28;20039;-78
2021/05/23 00:35:24;;;;;;;10.48;4.55;;;20.70;43.30;;;;;;5075050;28;20031;-78
2021/05/23 00:37:51;;;;;;;12.40;3.42;;;20.50;43.50;;;;;;5076647;28;20441;-79
2021/05/23 00:40:17;;;;;;;10.13;4.97;;;20.30;43.80;;;;;;5075068;28;20024;-80
2021/05/23 00:42:44;;;;;;;13.27;3.22;;;20.20;44.30;;;;;;5076336;28;20021;-79
2021/05/23 00:45:14;;;;;;;10.75;2.80;;;20.20;44.50;;;;;;5077832;28;20083;-80
2021/05/23 00:47:41;;;;;;;11.55;3.63;;;20.20;44.60;;;;;;5078568;28;20063;-81
2021/05/23 00:50:09;;;;;;;19.85;3.10;;;20.10;44.60;;;;;;5078360;28;20029;-79
2021/05/23 00:52:35;;;;;;;10.13;3.75;;;19.90;44.90;;;;;;5078294;28;20070;-80
2021/05/23 00:55:03;;;;;;;12.10;3.50;;;19.90;45.10;;;;;;5075498;28;20500;-81
2021/05/23 00:57:30;;;;;;;15.68;3.80;;;19.90;45.60;;;;;;5083031;28;20028;-78
2021/05/23 00:59:56;;;;;;;12.85;3.50;;;19.90;45.60;;;;;;5076047;28;20519;-79
2021/05/23 01:02:49;;;;;;;9.02;4.05;;;19.80;45.90;;;;;;5055298;28;20021;-79
2021/05/23 01:05:21;;;;;;;12.05;4.10;;;19.90;45.90;;;;;;5042213;28;20371;-80
2021/05/23 01:07:48;;;;;;;16.48;4.00;;;19.80;46.10;;;;;;5058951;28;20020;-79
2021/05/23 01:10:25;;;;;;;11.20;4.07;;;19.80;46.30;;;;;;5074830;28;20539;-80
2021/05/23 01:12:56;;;;;;;13.77;4.72;;;19.50;46.90;;;;;;5076912;28;20020;-79
2021/05/23 01:15:30;;;;;;;15.15;4.35;;;19.70;46.40;;;;;;5072727;28;20025;-79
2021/05/23 01:18:01;;;;;;;15.95;3.78;;;19.80;46.40;;;;;;5068130;28;20021;-79
2021/05/23 01:20:46;;;;;;;13.10;3.35;;;19.70;46.60;;;;;;5075453;28;20044;-79
2021/05/23 01:23:30;;;;;;;9.70;3.30;;;19.60;46.70;;;;;;5076724;28;20039;-79
2021/05/23 01:26:06;;;;;;;15.27;4.75;;;19.60;47.10;;;;;;5067204;28;20036;-79
2021/05/23 01:28:48;;;;;;;19.83;5.40;;;19.70;47.10;;;;;;5077777;28;20024;-79
2021/05/23 01:31:18;;;;;;;10.25;2.92;;;19.50;47.10;;;;;;5075620;28;20090;-80
2021/05/23 01:33:51;;;;;;;7.05;4.00;;;19.50;47.20;;;;;;5074589;28;20028;-80
2021/05/23 01:36:20;;;;;;;8.20;3.42;;;19.40;47.10;;;;;;5052099;28;20024;-79
2021/05/23 01:38:47;;;;;;;10.65;3.33;;;19.40;47.50;;;;;;5065261;28;20021;-79
2021/05/23 01:41:14;;;;;;;13.85;3.80;;;19.30;47.60;;;;;;5079876;28;20016;-79
2021/05/23 01:43:40;;;;;;;14.55;3.75;;;19.20;47.70;;;;;;5076459;28;20021;-78
2021/05/23 01:46:08;;;;;;;14.93;3.80;;;19.00;47.90;;;;;;5065590;28;20459;-80
2021/05/23 01:48:37;;;;;;;15.73;3.85;;;19.00;47.90;;;;;;5061522;28;20032;-79
2021/05/23 01:51:05;;;;;;;7.95;3.55;;;18.90;48.30;;;;;;5075694;28;20056;-77
2021/05/23 01:53:32;;;;;;;11.27;3.28;;;18.70;48.20;;;;;;5077142;28;20467;-78
2021/05/23 01:55:59;;;;;;;16.63;4.70;;;18.60;48.70;;;;;;5053860;28;20037;-79
2021/05/23 01:58:26;;;;;;;8.05;3.30;;;18.50;48.70;;;;;;5076107;28;20044;-80
2021/05/23 02:00:53;;;;;;;9.52;4.22;;;18.40;48.80;;;;;;5074965;28;20025;-78
2021/05/23 02:03:23;;;;;;;12.75;3.25;;;18.30;49.30;;;;;;5056703;28;20028;-79
2021/05/23 02:05:55;;;;;;;8.82;3.50;;;18.20;49.70;;;;;;5068986;28;20025;-77
2021/05/23 02:08:23;;;;;;;19.95;5.85;;;18.00;49.60;;;;;;5060389;28;20032;-79
2021/05/23 02:10:51;;;;;;;11.77;4.68;;;17.90;50.40;;;;;;5056433;28;20024;-80
2021/05/23 02:13:19;;;;;;;11.80;3.55;;;17.70;50.00;;;;;;5072605;28;20442;-80
2021/05/23 02:15:46;;;;;;;14.75;3.58;;;17.50;50.70;;;;;;5068035;28;20037;-78
2021/05/23 02:18:13;;;;;;;6.70;2.83;;;17.30;51.40;;;;;;5067077;28;20029;-78
2021/05/23 02:20:40;;;;;;;13.68;4.25;;;17.20;51.90;;;;;;5065371;28;20479;-79
2021/05/23 02:23:13;;;;;;;9.68;4.15;;;17.00;52.40;;;;;;5076007;28;20024;-80
2021/05/23 02:25:40;;;;;;;12.00;4.60;;;16.80;52.60;;;;;;5074499;28;20029;-80
2021/05/23 02:28:08;;;;;;;7.68;3.50;;;16.70;53.50;;;;;;5056356;28;20028;-79
2021/05/23 02:30:43;;;;;;;15.30;5.80;;;16.60;53.60;;;;;;5075561;28;20039;-78
2021/05/23 02:33:12;;;;;;;10.95;4.95;;;16.60;53.90;;;;;;5058622;28;20363;-80
2021/05/23 02:35:41;;;;;;;13.98;2.92;;;16.50;54.90;;;;;;5058221;28;20021;-78
2021/05/23 02:38:09;;;;;;;16.30;4.35;;;16.40;54.70;;;;;;5071641;28;20043;-80
2021/05/23 02:40:37;;;;;;;21.42;5.53;;;16.20;55.00;;;;;;5067673;28;20021;-79
2021/05/23 02:43:05;;;;;;;9.20;3.60;;;16.20;55.00;;;;;;5049362;28;20029;-78
2021/05/23 02:45:34;;;;;;;11.05;3.72;;;16.20;54.80;;;;;;5068285;28;20459;-79
2021/05/23 02:48:02;;;;;;;12.55;3.85;;;16.10;55.80;;;;;;5075811;28;20033;-77
2021/05/23 02:50:30;;;;;;;13.80;4.57;;;15.90;55.50;;;;;;5077662;28;20054;-78
2021/05/23 02:52:57;;;;;;;19.77;3.63;;;16.00;55.60;;;;;;5077687;28;20044;-79
2021/05/23 02:55:25;;;;;;;14.98;5.28;;;15.80;57.30;;;;;;5093812;28;20028;-80
2021/05/23 02:57:52;;;;;;;15.00;3.55;;;15.90;56.00;;;;;;5052861;28;20020;-79
2021/05/23 03:00:22;;;;;;;15.20;3.47;;;15.70;56.10;;;;;;5078220;28;20452;-78
2021/05/23 03:02:49;;;;;;;11.18;3.47;;;15.50;57.40;;;;;;5086936;28;20028;-80
2021/05/23 03:05:18;;;;;;;6.80;3.13;;;15.60;56.90;;;;;;5076210;28;20039;-78
2021/05/23 03:07:47;;;;;;;11.07;3.80;;;15.70;57.10;;;;;;5066730;28;20051;-79
2021/05/23 03:10:17;;;;;;;17.08;6.13;;;15.50;56.40;;;;;;5053318;28;20052;-78
2021/05/23 03:12:45;;;;;;;10.32;3.42;;;15.40;57.30;;;;;;5077678;28;20032;-78
2021/05/23 03:15:14;;;;;;;16.27;3.72;;;15.50;56.80;;;;;;5058019;28;20055;-81
2021/05/23 03:17:41;;;;;;;12.90;5.95;;;15.40;56.00;;;;;;5068042;28;20070;-78
2021/05/23 03:20:09;;;;;;;6.75;3.47;;;15.50;57.00;;;;;;5069205;28;20119;-79
2021/05/23 03:22:39;;;;;;;17.92;3.78;;;15.40;56.70;;;;;;5056211;28;20027;-76
2021/05/23 03:25:08;;;;;;;6.50;3.63;;;15.50;56.80;;;;;;5058112;28;20074;-81
2021/05/23 03:27:35;;;;;;;8.55;5.43;;;15.50;57.40;;;;;;5074736;28;20033;-80
2021/05/23 03:30:03;;;;;;;22.20;4.70;;;15.50;57.70;;;;;;5046294;28;20032;-78
2021/05/23 03:32:29;;;;;;;16.48;5.72;;;15.40;58.20;;;;;;5052423;28;20024;-78
2021/05/23 03:34:56;;;;;;;20.23;4.95;;;15.30;58.90;;;;;;5075114;28;20028;-78
2021/05/23 03:37:22;;;;;;;17.67;5.18;;;15.10;58.90;;;;;;5074393;28;20448;-77
2021/05/23 03:39:48;;;;;;;13.85;5.40;;;15.10;58.80;;;;;;5067186;28;20029;-79
2021/05/23 03:42:15;;;;;;;29.30;6.70;;;15.00;58.60;;;;;;5044113;28;20024;-79
2021/05/23 03:44:41;;;;;;;11.40;4.43;;;14.70;60.40;;;;;;5071389;28;20079;-76
2021/05/23 03:47:07;;;;;;;13.05;4.85;;;14.90;59.50;;;;;;5069975;28;20017;-76
2021/05/23 03:49:38;;;;;;;8.93;4.82;;;14.90;60.00;;;;;;5067909;28;20363;-77
2021/05/23 03:52:11;;;;;;;12.43;2.97;;;14.90;58.90;;;;;;5074458;28;20348;-77
2021/05/23 03:54:38;;;;;;;17.65;4.85;;;14.90;59.80;;;;;;5068297;28;20093;-77
2021/05/23 03:57:05;;;;;;;18.67;4.43;;;14.70;60.70;;;;;;5063309;28;20013;-76
2021/05/23 03:59:32;;;;;;;12.68;4.32;;;14.50;60.20;;;;;;5055957;28;20025;-79
2021/05/23 04:01:59;;;;;;;10.75;4.05;;;14.60;60.60;;;;;;5056451;28;20035;-81
2021/05/23 04:04:36;;;;;;;20.75;5.20;;;14.50;60.70;;;;;;5074814;28;20044;-78
2021/05/23 04:07:02;;;;;;;15.20;4.57;;;14.50;59.70;;;;;;5055232;28;20039;-77
2021/05/23 04:09:31;;;;;;;13.80;4.28;;;14.70;60.10;;;;;;5073071;28;20028;-79
2021/05/23 04:12:00;;;;;;;12.85;4.65;;;14.60;59.70;;;;;;5049456;28;20033;-78
2021/05/23 04:14:27;;;;;;;16.42;4.78;;;14.50;61.80;;;;;;5055475;28;20040;-79
2021/05/23 04:16:53;;;;;;;9.43;3.97;;;14.50;59.70;;;;;;5038166;28;20048;-79
2021/05/23 04:19:20;;;;;;;7.55;3.80;;;14.40;61.30;;;;;;5047678;28;20028;-78
2021/05/23 04:21:46;;;;;;;4.60;3.85;;;14.40;61.90;;;;;;5056031;28;20361;-79
2021/05/23 04:24:12;;;;;;;10.85;4.25;;;14.30;62.40;;;;;;5043276;28;20506;-79
2021/05/23 04:26:39;;;;;;;11.85;4.38;;;14.30;62.10;;;;;;5056987;28;20020;-79
2021/05/23 04:29:05;;;;;;;11.82;5.03;;;14.30;61.40;;;;;;5056872;28;20356;-78
2021/05/23 04:31:32;;;;;;;18.10;4.47;;;14.40;62.10;;;;;;5071309;28;20406;-78
2021/05/23 04:33:59;;;;;;;8.98;3.85;;;14.60;61.90;;;;;;5057156;28;20021;-79
2021/05/23 04:36:29;;;;;;;13.55;4.43;;;14.50;60.20;;;;;;5048095;28;20031;-79
2021/05/23 04:38:55;;;;;;;17.70;4.07;;;14.50;61.80;;;;;;5055937;28;20024;-78
2021/05/23 04:41:22;;;;;;;10.20;4.25;;;14.40;61.30;;;;;;5072581;28;20151;-77
2021/05/23 04:43:48;;;;;;;17.30;5.70;;;14.50;61.00;;;;;;5071283;28;20048;-78
2021/05/23 04:46:15;;;;;;;17.45;6.28;;;14.60;61.20;;;;;;5068659;28;20024;-79
2021/05/23 04:48:41;;;;;;;11.57;4.85;;;14.40;60.00;;;;;;5070735;28;20067;-78
2021/05/23 04:51:08;;;;;;;16.27;4.00;;;14.60;61.90;;;;;;5039313;28;20508;-77
2021/05/23 04:53:34;;;;;;;8.20;3.63;;;14.60;61.30;;;;;;5053807;28;20037;-79
2021/05/23 04:56:01;;;;;;;9.75;4.60;;;14.50;61.60;;;;;;5071032;28;20052;-79
2021/05/23 04:58:27;;;;;;;11.70;3.47;;;14.60;60.90;;;;;;5056227;28;20020;-79
2021/05/23 05:00:53;;;;;;;10.43;6.28;;;14.50;61.40;;;;;;5048617;28;20454;-80
2021/05/23 05:03:20;;;;;;;7.05;3.92;;;14.60;61.70;;;;;;5064900;28;20021;-79
2021/05/23 05:05:46;;;;;;;11.68;4.65;;;14.50;62.00;;;;;;5068670;28;20042;-79
2021/05/23 05:08:12;;;;;;;8.88;3.70;;;14.50;62.00;;;;;;5067075;28;20028;-78
2021/05/23 05:10:39;;;;;;;20.35;4.22;;;14.40;62.50;;;;;;5074617;28;20020;-79
2021/05/23 05:13:05;;;;;;;12.10;5.93;;;14.40;61.90;;;;;;5076859;28;20040;-79
2021/05/23 05:15:32;;;;;;;11.02;4.97;;;14.40;62.30;;;;;;5069884;28;20111;-79
2021/05/23 05:17:58;;;;;;;10.60;4.32;;;14.30;61.90;;;;;;5074023;28;20024;-79
2021/05/23 05:20:26;;;;;;;22.92;6.03;;;14.30;61.50;;;;;;5057231;28;20459;-80
2021/05/23 05:22:53;;;;;;;12.02;4.70;;;14.40;62.60;;;;;;5070868;28;20166;-79
2021/05/23 05:25:20;;;;;;;6.03;4.57;;;14.40;62.80;;;;;;5057209;28;20033;-80
2021/05/23 05:27:47;;;;;;;6.10;3.85;;;14.20;62.20;;;;;;5062439;28;20032;-79
2021/05/23 05:30:14;;;;;;;7.78;3.85;;;14.20;62.50;;;;;;5057543;28;20029;-78
2021/05/23 05:32:41;;;;;;;8.38;3.65;;;14.20;63.00;;;;;;5066999;28;20036;-81
2021/05/23 05:35:08;;;;;;;5.50;3.40;;;14.40;62.40;;;;;;5075538;28;20060;-82
2021/05/23 05:37:34;;;;;;;9.55;3.85;;;14.60;61.80;;;;;;5059485;28;20021;-82
2021/05/23 05:40:03;;;;;;;16.33;4.88;;;14.50;61.80;;;;;;5076606;28;20456;-79
2021/05/23 05:42:29;;;;;;;11.23;5.20;;;14.40;60.90;;;;;;5074843;28;20029;-80
2021/05/23 05:44:56;;;;;;;13.90;4.32;;;14.40;62.10;;;;;;5077694;28;20029;-80
2021/05/23 05:47:22;;;;;;;11.75;4.28;;;14.60;62.70;;;;;;5076725;28;20103;-79
2021/05/23 05:49:49;;;;;;;18.90;5.00;;;14.50;62.30;;;;;;5076045;28;20082;-81
2021/05/23 05:52:15;;;;;;;13.45;5.22;;;14.60;62.60;;;;;;5074266;28;20054;-80
2021/05/23 05:54:41;;;;;;;8.85;4.53;;;14.50;61.60;;;;;;5077300;28;20020;-80
2021/05/23 05:57:08;;;;;;;15.35;4.80;;;14.50;62.00;;;;;;5075993;28;20024;-81
2021/05/23 05:59:34;;;;;;;13.15;3.97;;;14.40;62.30;;;;;;5077973;28;20448;-81
2021/05/23 06:02:01;;;;;;;16.88;4.30;;;14.40;61.90;;;;;;5074751;28;20025;-81
2021/05/23 06:04:27;;;;;;;15.93;5.03;;;14.50;61.90;;;;;;5075894;28;20531;-80
2021/05/23 06:06:53;;;;;;;14.43;5.35;;;14.60;62.00;;;;;;5075314;28;20360;-80
2021/05/23 06:09:20;;;;;;;10.38;3.47;;;14.60;62.40;;;;;;5058081;28;20047;-80
2021/05/23 06:11:46;;;;;;;13.23;5.25;;;14.70;61.70;;;;;;5079172;28;20035;-81
2021/05/23 06:14:12;;;;;;;14.40;3.72;;;14.50;62.00;;;;;;5059905;28;20489;-80
2021/05/23 06:16:39;;;;;;;13.45;4.43;;;14.30;61.80;;;;;;5060210;28;20128;-80
2021/05/23 06:19:05;;;;;;;8.30;2.97;;;14.50;62.70;;;;;;5076762;28;20039;-80
2021/05/23 06:21:32;;;;;;;10.63;4.78;;;14.60;61.70;;;;;;5074942;28;20356;-80
2021/05/23 06:23:58;;;;;;;11.50;3.90;;;14.50;62.10;;;;;;5058563;28;20500;-81
2021/05/23 06:26:26;;;;;;;19.05;4.43;;;14.60;61.90;;;;;;5075232;28;20074;-81
2021/05/23 06:28:54;;;;;;;16.70;4.20;;;14.60;61.70;;;;;;5072338;28;20027;-81
2021/05/23 06:31:21;;;;;;;12.35;5.10;;;14.60;62.00;;;;;;5074081;28;20020;-80
2021/05/23 06:33:47;;;;;;;7.43;3.88;;;14.70;61.70;;;;;;5059246;28;20035;-80
2021/05/23 06:36:14;;;;;;;7.35;3.22;;;14.70;61.70;;;;;;5071633;28;20355;-81
2021/05/23 06:38:40;;;;;;;9.05;4.35;;;14.50;61.40;;;;;;5072819;28;20032;-80
2021/05/23 06:41:07;;;;;;;10.50;4.50;;;14.80;62.40;;;;;;5074392;28;20048;-79
2021/05/23 06:43:33;;;;;;;11.25;4.50;;;14.70;62.10;;;;;;5071554;28;20105;-80
2021/05/23 06:46:00;;;;;;;9.90;3.33;;;14.70;62.10;;;;;;5074990;28;20032;-80
2021/05/23 06:48:26;;;;;;;15.80;4.03;;;14.50;61.60;;;;;;5079002;28;20024;-79
2021/05/23 06:50:53;;;;;;;8.07;4.07;;;14.60;62.40;;;;;;5075129;28;20028;-79
2021/05/23 06:53:20;;;;;;;19.65;5.22;;;14.70;62.30;;;;;;5075703;28;20107;-78
2021/05/23 06:55:46;;;;;;;16.13;2.75;;;14.70;62.20;;;;;;5073292;28;20142;-79
2021/05/23 06:58:13;;;;;;;12.27;3.30;;;14.50;61.80;;;;;;5073380;28;20021;-78
2021/05/23 07:00:39;;;;;;;7.63;3.30;;;14.40;62.20;;;;;;5076448;28;20398;-79
2021/05/23 07:03:06;;;;;;;9.80;3.67;;;14.70;62.50;;;;;;5069959;28;20017;-80
2021/05/23 07:05:32;;;;;;;13.32;4.25;;;14.70;62.20;;;;;;5069340;28;20350;-80
2021/05/23 07:07:59;;;;;;;10.20;2.97;;;14.70;62.30;;;;;;5057155;28;20040;-79
2021/05/23 07:10:25;;;;;;;18.38;5.45;;;14.60;62.10;;;;;;5072518;28;20052;-79
2021/05/23 07:12:52;;;;;;;15.85;4.10;;;14.80;62.40;;;;;;5075157;28;20304;-80
2021/05/23 07:15:18;;;;;;;11.15;5.53;;;14.80;62.50;;;;;;5074773;28;20029;-81
2021/05/23 07:17:45;;;;;;;36.00;4.53;;;14.70;61.90;;;;;;5056497;28;20021;-80
2021/05/23 07:20:12;;;;;;;9.55;3.58;;;14.60;62.60;;;;;;5072710;28;20040;-80
2021/05/23 07:22:38;;;;;;;8.02;2.83;;;14.60;62.40;;;;;;5075655;28;20028;-80
2021/05/23 07:25:05;;;;;;;13.68;3.35;;;14.40;62.80;;;;;;5045049;28;20041;-81
2021/05/23 07:27:31;;;;;;;16.73;4.38;;;14.40;63.20;;;;;;5040243;28;20039;-82
2021/05/23 07:29:58;;;;;;;18.70;3.13;;;14.70;63.10;;;;;;5074504;28;20024;-81
2021/05/23 07:32:24;;;;;;;13.60;3.20;;;14.70;62.20;;;;;;5055639;28;20136;-80
2021/05/23 07:34:50;;;;;;;8.10;3.88;;;14.70;62.00;;;;;;5074806;28;20085;-80
2021/05/23 07:37:17;;;;;;;9.82;3.00;;;14.70;62.20;;;;;;5076102;28;20036;-82
2021/05/23 07:39:44;;;;;;;15.20;3.13;;;14.80;62.10;;;;;;5074166;28;20021;-82
2021/05/23 07:42:11;;;;;;;14.73;4.22;;;14.70;62.10;;;;;;5073603;28;20028;-81
2021/05/23 07:44:37;;;;;;;6.25;4.28;;;14.70;62.40;;;;;;5063631;28;20028;-81
2021/05/23 07:47:04;;;;;;;12.98;3.38;;;14.70;62.40;;;;;;5073623;28;20058;-81
2021/05/23 07:49:30;;;;;;;9.98;3.40;;;14.70;62.50;;;;;;5067154;28;20032;-81
2021/05/23 07:51:57;;;;;;;18.77;5.80;;;14.50;62.30;;;;;;5056773;28;20040;-80
2021/05/23 07:54:23;;;;;;;13.27;3.58;;;14.70;62.30;;;;;;5071454;28;20029;-81
2021/05/23 07:56:50;;;;;;;14.35;3.25;;;14.60;61.90;;;;;;5054059;28;20017;-80
2021/05/23 07:59:16;;;;;;;11.38;3.75;;;14.50;62.40;;;;;;5078241;28;20016;-81
2021/05/23 08:01:42;;;;;;;14.27;4.43;;;14.60;62.30;;;;;;5064270;28;20021;-81
2021/05/23 08:04:09;;;;;;;10.25;2.72;;;14.60;62.20;;;;;;5073994;28;20051;-80
2021/05/23 08:06:35;;;;;;;13.35;3.75;;;14.40;62.50;;;;;;5074493;28;20024;-81
2021/05/23 08:09:02;;;;;;;14.32;3.40;;;14.40;62.70;;;;;;5063141;28;20082;-82
2021/05/23 08:11:28;;;;;;;10.60;4.03;;;14.50;62.50;;;;;;5074101;28;20341;-80
2021/05/23 08:13:54;;;;;;;16.45;5.88;;;14.70;62.70;;;;;;5056677;28;20425;-82
2021/05/23 08:16:21;;;;;;;10.80;2.92;;;14.80;62.40;;;;;;5050797;28;20422;-81
2021/05/23 08:18:47;;;;;;;5.90;3.00;;;14.60;61.80;;;;;;5041919;28;20020;-81
2021/05/23 08:21:14;;;;;;;6.90;2.90;;;14.60;62.10;;;;;;5055686;28;20033;-81
2021/05/23 08:23:40;;;;;;;9.40;3.05;;;14.50;62.50;;;;;;5073844;28;20056;-81
2021/05/23 08:26:07;;;;;;;11.80;3.53;;;14.60;62.60;;;;;;5074113;28;20037;-81
2021/05/23 08:28:34;;;;;;;7.75;3.10;;;14.70;62.20;;;;;;5073427;28;20067;-81
2021/05/23 08:31:01;;;;;;;7.63;2.63;;;14.70;61.90;;;;;;5050483;28;20037;-81
2021/05/23 08:33:28;;;;;;;8.95;2.65;;;14.60;62.00;;;;;;5064068;28;20024;-81
2021/05/23 08:35:54;;;;;;;6.60;2.60;;;14.60;62.40;;;;;;5073645;28;20048;-81
2021/05/23 08:38:20;;;;;;;7.53;2.67;;;14.60;62.60;;;;;;5074160;28;20089;-80
2021/05/23 08:40:47;;;;;;;19.63;5.70;;;14.50;62.90;;;;;;5064444;28;20016;-81
2021/05/23 08:43:15;;;;;;;7.55;5.10;;;14.40;62.50;;;;;;5061641;28;20023;-81
2021/05/23 08:45:42;;;;;;;7.25;3.38;;;14.20;63.60;;;;;;5063882;28;20178;-81
2021/05/23 08:48:10;;;;;;;5.55;3.83;;;14.40;62.90;;;;;;5073932;28;20024;-81
2021/05/23 08:50:37;;;;;;;12.63;3.22;;;14.30;63.00;;;;;;5064848;28;20119;-81
2021/05/23 08:53:05;;;;;;;14.25;3.55;;;14.50;63.40;;;;;;5073819;28;20371;-81
2021/05/23 08:55:35;;;;;;;11.52;3.72;;;14.40;62.70;;;;;;5056084;28;20039;-81
2021/05/23 08:58:02;;;;;;;14.13;3.22;;;14.30;62.80;;;;;;5073681;28;20021;-81
2021/05/23 09:00:29;;;;;;;10.80;2.90;;;14.50;63.20;;;;;;5073548;28;20029;-81
2021/05/23 09:02:58;;;;;;;11.20;2.90;;;14.50;63.30;;;;;;5059342;28;20021;-81
2021/05/23 09:05:38;;;;;;;8.48;2.72;;;14.30;63.00;;;;;;5077665;28;20028;-79
2021/05/23 09:08:16;;;;;;;5.72;3.90;;;14.30;63.50;;;;;;5067034;28;20032;-80
2021/05/23 09:10:44;;;;;;;12.55;3.78;;;14.30;63.40;;;;;;5075198;28;20470;-81
2021/05/23 09:13:11;;;;;;;12.85;2.92;;;14.10;63.80;;;;;;5071129;28;20048;-81
2021/05/23 09:15:38;;;;;;;11.98;3.80;;;14.20;64.10;;;;;;5066301;28;20036;-81
2021/05/23 09:18:06;;;;;;;11.00;4.90;;;14.10;63.10;;;;;;5062694;28;20135;-81
2021/05/23 09:20:37;;;;;;;30.88;5.28;;;14.10;63.30;;;;;;5060515;28;20042;-81
2021/05/23 09:23:22;;;;;;;10.85;3.90;;;14.20;63.20;;;;;;5077698;28;20082;-82
2021/05/23 09:25:49;;;;;;;17.98;4.55;;;14.20;63.50;;;;;;5068101;28;20016;-81
2021/05/23 09:28:16;;;;;;;12.40;5.13;;;14.20;62.80;;;;;;5077271;28;20063;-81
2021/05/23 09:30:45;;;;;;;7.80;3.70;;;14.10;62.90;;;;;;5069059;28;20058;-81
2021/05/23 09:33:19;;;;;;;11.35;3.10;;;14.00;63.10;;;;;;5075662;28;20035;-81
2021/05/23 09:35:46;;;;;;;4.28;3.50;;;14.10;63.40;;;;;;5076966;28;20426;-81
2021/05/23 09:38:15;;;;;;;6.55;2.50;;;14.00;63.40;;;;;;5077309;28;20467;-80
2021/05/23 09:40:44;;;;;;;10.07;3.47;;;13.90;64.00;;;;;;5074977;28;20109;-81
2021/05/23 09:43:18;;;;;;;9.80;3.05;;;13.90;64.10;;;;;;5056142;28;20049;-81
2021/05/23 09:45:47;;;;;;;7.63;3.03;;;14.10;64.10;;;;;;5053175;28;20033;-81
2021/05/23 09:48:23;;;;;;;7.20;3.25;;;14.10;63.10;;;;;;5076925;28;20352;-80
2021/05/23 09:50:52;;;;;;;7.10;3.40;;;13.90;63.40;;;;;;5076791;28;20455;-80
2021/05/23 09:53:31;;;;;;;8.48;3.67;;;14.00;63.50;;;;;;5076835;28;20400;-81
2021/05/23 09:56:12;;;;;;;5.32;3.03;;;14.00;64.10;;;;;;5075707;28;20115;-81
2021/05/23 09:58:41;;;;;;;12.13;3.05;;;14.10;64.10;;;;;;5056496;28;20021;-81
2021/05/23 10:01:23;;;;;;;6.82;2.80;;;14.10;63.80;;;;;;5072305;28;20016;-81
2021/05/23 10:03:50;;;;;;;14.13;3.67;;;14.20;63.50;;;;;;5070842;28;20048;-81
2021/05/23 10:06:29;;;;;;;11.07;3.97;;;14.10;64.10;;;;;;5076560;28;20491;-81
2021/05/23 10:08:57;;;;;;;11.52;3.33;;;14.10;63.80;;;;;;5076427;28;20407;-81
2021/05/23 10:11:24;;;;;;;17.33;3.65;;;13.90;64.30;;;;;;5076271;28;20024;-82
2021/05/23 10:13:51;;;;;;;11.25;3.42;;;14.00;64.10;;;;;;5073084;28;20063;-81
2021/05/23 10:16:19;;;;;;;7.95;2.97;;;14.00;64.10;;;;;;5076211;28;20337;-82
2021/05/23 10:18:46;;;;;;;14.05;4.85;;;13.90;64.50;;;;;;5076682;28;20030;-81
2021/05/23 10:21:13;;;;;;;19.85;3.80;;;14.00;64.20;;;;;;5052845;28;20159;-81
2021/05/23 10:23:47;;;;;;;8.25;3.28;;;13.90;63.80;;;;;;5074102;28;20047;-80
2021/05/23 10:26:14;;;;;;;6.78;3.38;;;14.10;64.00;;;;;;5071754;28;20502;-81
2021/05/23 10:28:45;;;;;;;10.73;3.75;;;14.10;63.70;;;;;;5075730;28;20039;-80
2021/05/23 10:31:13;;;;;;;11.85;3.15;;;14.20;63.90;;;;;;5071557;28;20365;-81
2021/05/23 10:33:51;;;;;;;11.55;4.90;;;14.40;63.60;;;;;;5067246;28;20050;-81
2021/05/23 10:36:31;;;;;;;5.00;3.05;;;14.30;62.80;;;;;;5074605;28;20063;-81
2021/05/23 10:38:59;;;;;;;11.50;2.83;;;14.30;63.10;;;;;;5075761;28;20016;-81
2021/05/23 10:41:25;;;;;;;8.88;2.90;;;14.30;63.20;;;;;;5076023;28;20076;-81
2021/05/23 10:44:00;;;;;;;7.13;2.90;;;14.20;63.00;;;;;;5075984;28;20047;-81
2021/05/23 10:46:29;;;;;;;6.05;4.65;;;14.30;63.20;;;;;;5065985;28;20465;-80
2021/05/23 10:49:00;;;;;;;24.35;3.35;;;14.20;63.50;;;;;;5071362;28;20021;-81
2021/05/23 10:51:28;;;;;;;10.23;3.17;;;14.30;63.70;;;;;;5073854;28;20028;-81
2021/05/23 10:53:54;;;;;;;10.43;3.45;;;14.30;63.40;;;;;;5057755;28;20029;-81
2021/05/23 10:56:32;;;;;;;5.43;2.53;;;14.30;63.50;;;;;;5075358;28;20090;-81
2021/05/23 10:59:03;;;;;;;3.03;2.22;;;14.30;63.30;;;;;;5069371;28;20021;-80
2021/05/23 11:01:39;;;;;;;13.75;4.78;;;14.10;63.80;;;;;;5075321;28;20082;-81
2021/05/23 11:04:19;;;;;;;8.52;2.33;;;14.10;63.80;;;;;;5071776;28;20016;-81
2021/05/23 11:06:47;;;;;;;11.18;5.10;;;14.20;63.90;;;;;;5070216;28;20028;-81
2021/05/23 11:09:16;;;;;;;12.73;3.83;;;14.10;63.60;;;;;;5055701;28;20083;-81
2021/05/23 11:11:44;;;;;;;7.90;2.88;;;13.90;64.20;;;;;;5054359;28;20052;-80
2021/05/23 11:14:24;;;;;;;10.02;2.80;;;13.90;64.30;;;;;;5057978;28;20037;-81
2021/05/23 11:16:56;;;;;;;7.50;3.92;;;13.90;64.10;;;;;;5081152;28;20048;-81
2021/05/23 11:19:25;;;;;;;5.55;3.45;;;14.00;63.80;;;;;;5074213;28;20379;-81
2021/05/23 11:21:55;;;;;;;10.35;3.58;;;13.90;64.20;;;;;;5073608;28;20060;-81
2021/05/23 11:24:28;;;;;;;14.15;4.60;;;14.00;63.40;;;;;;5075146;28;20360;-81
2021/05/23 11:26:55;;;;;;;8.82;3.08;;;13.80;63.90;;;;;;5071167;28;20078;-81
2021/05/23 11:29:24;;;;;;;4.25;2.13;;;13.80;63.90;;;;;;5075360;28;20060;-82
2021/05/23 11:31:51;;;;;;;11.80;5.90;;;13.70;63.90;;;;;;5074594;28;20078;-81
2021/05/23 11:34:21;;;;;;;9.65;3.20;;;13.70;63.80;;;;;;5065275;28;20039;-81
2021/05/23 11:36:48;;;;;;;11.98;3.88;;;13.70;64.20;;;;;;5068834;28;20039;-80
2021/05/23 11:39:19;;;;;;;9.25;3.17;;;13.80;64.10;;;;;;5074974;28;20031;-81
2021/05/23 11:41:48;;;;;;;6.88;3.33;;;13.90;64.00;;;;;;5057664;28;20069;-81
2021/05/23 11:44:15;;;;;;;10.63;4.18;;;13.90;63.80;;;;;;5055854;28;20029;-81
2021/05/23 11:46:44;;;;;;;12.48;4.00;;;14.00;64.00;;;;;;5074565;28;20099;-81
2021/05/23 11:49:32;;;;;;;11.05;4.05;;;14.00;64.30;;;;;;5057073;28;20029;-81
2021/05/23 11:52:00;;;;;;;13.30;3.97;;;13.90;64.00;;;;;;5069861;28;20024;-81
2021/05/23 11:54:27;;;;;;;8.50;3.42;;;14.00;64.60;;;;;;5074859;28;20025;-81
2021/05/23 11:56:53;;;;;;;5.88;2.88;;;13.90;64.30;;;;;;5074786;28;20345;-81
2021/05/23 11:59:20;;;;;;;10.68;3.70;;;14.00;64.70;;;;;;5074795;28;20020;-80
2021/05/23 12:01:56;;;;;;;8.90;3.20;;;14.10;64.40;;;;;;5073868;28;20026;-81
2021/05/23 12:04:24;;;;;;;10.38;2.90;;;13.80;63.70;;;;;;5055253;28;20021;-81
2021/05/23 12:06:55;;;;;;;26.35;6.10;;;13.90;63.70;;;;;;5054766;28;20032;-81
2021/05/23 12:09:24;;;;;;;11.48;3.35;;;14.00;64.00;;;;;;5056629;28;20021;-81
2021/05/23 12:12:00;;;;;;;12.38;3.22;;;13.80;64.20;;;;;;5072965;28;20352;-81
2021/05/23 12:14:34;;;;;;;13.93;3.90;;;13.70;64.20;;;;;;5074543;28;20020;-81
2021/05/23 12:17:09;;;;;;;6.65;2.75;;;13.90;64.40;;;;;;5074467;28;20020;-81
2021/05/23 12:19:52;;;;;;;10.63;3.65;;;13.80;64.60;;;;;;5069145;28;20032;-81
2021/05/23 12:22:32;;;;;;;9.30;3.10;;;13.70;64.40;;;;;;5042991;28;20026;-81
2021/05/23 12:25:11;;;;;;;15.23;5.03;;;13.50;64.40;;;;;;5074426;28;20033;-81
2021/05/23 12:27:48;;;;;;;19.65;5.60;;;13.70;64.70;;;;;;5073157;28;20423;-81
2021/05/23 12:30:23;;;;;;;6.15;2.65;;;13.60;64.40;;;;;;5060186;28;20029;-80
2021/05/23 12:33:07;;;;;;;8.02;3.08;;;13.60;64.80;;;;;;5069554;28;20028;-81
2021/05/23 12:35:39;;;;;;;4.47;2.72;;;13.70;64.40;;;;;;5075503;28;20028;-80
2021/05/23 12:38:18;;;;;;;8.35;2.53;;;13.60;64.50;;;;;;5047117;28;20119;-80
2021/05/23 12:40:51;;;;;;;11.07;3.42;;;13.80;64.60;;;;;;5071082;28;20108;-80
2021/05/23 12:43:18;;;;;;;15.27;5.00;;;13.70;63.70;;;;;;5072591;28;20032;-81
2021/05/23 12:46:06;;;;;;;12.32;3.78;;;13.70;64.40;;;;;;5076294;28;20052;-81
2021/05/23 12:48:44;;;;;;;13.80;3.45;;;13.70;64.20;;;;;;5077752;28;20024;-81